Sugar Camp, Wisconsin
Current Conditions -  °F | °C
As of 9:53 PM on Saturday 25 Oct 2014 (Local Time) from KRHI Reporting Station
Clear Clear  
Wind Chill: 43°   Ceiling: Unl
Heat Index: 47°   Visibility: 10mi
Dew Point: 23°   Wind: 9mph
Humidity: 39%   Direction: 300°WNW
Pressure: 29.93"   Gusts: NA
Location:  45.6521°N, 89.3386°W
Report Text: KRHI 260253Z AUTO 30008KT 10SM CLR 08/M05 A2993 RMK AO2 SLP143 T00831050 51011
Loading
Personal Weather Stations






























Interactive Weather Map
Tropical Storm Tracking
New forecast layout! Learn more

10-Day Weather Forecast

Advertisements
Track Severe Weather on mobile